Lakefield, Minnesota
Current Conditions -  °F | °C
As of 4:13 PM on Wednesday 28 Jan 2015 (Local Time) from KMJQ Reporting Station
Haze Haze  
Wind Chill: 30°   Ceiling: 500
Heat Index: 34°   Visibility: 4mi
Dew Point: 32°   Wind: 5mph
Humidity: 93%   Direction: 150°SSE
Pressure: 29.73"   Gusts: NA
Location:  43.68°N, 95.17°W
Report Text: KMJQ 282213Z AUTO 15004KT 4SM BR OVC005 01/00 A2973 RMK AO2
Loading
Personal Weather Stations






























Interactive Weather Map New forecast layout! Learn more

10-Day Weather Forecast

Advertisements
Track Severe Weather on mobile